createdAt,value
2022-11-24T02:18:06.357Z,57.06
2022-11-24T02:23:13.406Z,56.92
2022-11-24T02:28:19.219Z,57.09
2022-11-24T02:33:24.970Z,56.97
2022-11-24T02:38:32.957Z,57.11
2022-11-24T02:43:39.798Z,57.11
2022-11-24T02:48:44.289Z,57.11
2022-11-24T02:53:48.797Z,57.26
2022-11-24T02:58:53.182Z,57.16
2022-11-24T03:03:57.489Z,57.01
2022-11-24T03:09:02.113Z,57.21
2022-11-24T03:14:06.845Z,57.15
2022-11-24T03:19:10.917Z,57.42
2022-11-24T03:24:15.306Z,57.18
2022-11-24T03:29:20.027Z,57.21
2022-11-24T03:34:24.681Z,56.92
2022-11-24T03:39:29.174Z,57.18
2022-11-24T03:44:33.642Z,57.24
2022-11-24T03:49:38.469Z,57.20
2022-11-24T03:54:43.012Z,57.12
2022-11-24T03:59:47.668Z,57.27
2022-11-24T04:04:52.368Z,57.24
2022-11-24T04:09:56.829Z,57.32
2022-11-24T04:15:00.996Z,57.10
2022-11-24T04:20:06.337Z,57.27
2022-11-24T04:25:11.293Z,57.13
2022-11-24T04:30:16.152Z,57.08
2022-11-24T04:35:21.013Z,57.31
2022-11-24T04:40:25.231Z,57.39
2022-11-24T04:45:29.758Z,57.15
2022-11-24T04:50:34.056Z,57.35
2022-11-24T04:55:39.662Z,57.31
2022-11-24T05:00:44.049Z,57.41
2022-11-24T05:05:48.308Z,57.34
2022-11-24T05:10:52.982Z,57.23
2022-11-24T05:15:57.444Z,57.11
2022-11-24T05:21:02.210Z,57.24
2022-11-24T05:26:06.976Z,57.22
2022-11-24T05:31:11.651Z,57.16
2022-11-24T05:36:30.598Z,57.13
2022-11-24T05:41:35.489Z,57.05
2022-11-24T05:46:39.964Z,57.17
2022-11-24T05:51:44.272Z,57.35
2022-11-24T05:56:49.130Z,57.40
2022-11-24T06:01:53.694Z,57.22
2022-11-24T06:06:58.142Z,57.30
2022-11-24T06:12:03.250Z,57.30
2022-11-24T06:17:07.688Z,57.24
2022-11-24T06:22:12.416Z,57.29
2022-11-24T06:27:16.677Z,57.33
2022-11-24T06:32:20.958Z,57.33
2022-11-24T06:37:25.243Z,57.20
2022-11-24T06:42:29.927Z,57.37
2022-11-24T06:47:34.451Z,57.37
2022-11-24T06:52:38.837Z,57.11
2022-11-24T06:57:43.057Z,57.35
2022-11-24T07:02:47.799Z,57.60
2022-11-24T07:07:52.791Z,57.40
2022-11-24T07:12:57.243Z,57.33
2022-11-24T07:18:01.256Z,57.29
2022-11-24T07:23:06.539Z,57.40
2022-11-24T07:28:10.982Z,57.06
2022-11-24T07:33:15.981Z,57.52
2022-11-24T07:38:20.498Z,57.42
2022-11-24T07:43:25.010Z,57.75
2022-11-24T07:48:29.721Z,57.51
2022-11-24T07:53:34.336Z,57.20
2022-11-24T07:58:38.627Z,57.47
2022-11-24T08:03:43.375Z,57.59
2022-11-24T08:08:48.287Z,57.36
2022-11-24T08:13:52.511Z,57.67
2022-11-24T08:18:57.446Z,57.42
2022-11-24T08:24:01.877Z,57.54
2022-11-24T08:29:06.548Z,57.41
2022-11-24T08:34:11.446Z,57.50
2022-11-24T08:39:16.003Z,57.56
2022-11-24T08:44:20.212Z,57.51
2022-11-24T08:49:24.639Z,57.66
2022-11-24T08:54:28.728Z,57.43
2022-11-24T08:59:33.241Z,57.43
2022-11-24T09:04:38.178Z,57.59
2022-11-24T09:09:42.699Z,57.46
2022-11-24T09:14:47.236Z,57.48
2022-11-24T09:19:51.606Z,57.64
2022-11-24T09:24:56.178Z,57.65
2022-11-24T09:30:00.670Z,57.58
2022-11-24T09:35:05.653Z,57.45
2022-11-24T09:40:13.276Z,57.67
2022-11-24T09:45:49.336Z,57.76
2022-11-24T09:50:53.248Z,57.50
2022-11-24T09:55:59.350Z,57.69
2022-11-24T10:01:05.271Z,57.57
2022-11-24T10:06:19.129Z,57.64
2022-11-24T10:11:30.350Z,57.65
2022-11-24T10:16:43.797Z,57.64
2022-11-24T10:22:02.188Z,57.65
2022-11-24T10:27:11.348Z,57.51
2022-11-24T10:32:18.180Z,57.57
2022-11-24T10:37:27.448Z,57.70
2022-11-24T10:42:33.159Z,57.48
2022-11-24T10:47:37.349Z,57.63
2022-11-24T10:52:42.407Z,57.98
2022-11-24T10:57:46.591Z,57.73
2022-11-24T11:02:51.909Z,57.74
2022-11-24T11:08:10.089Z,57.77
2022-11-24T11:13:27.460Z,57.85
2022-11-24T11:18:32.833Z,57.90
2022-11-24T11:23:37.708Z,57.70
2022-11-24T11:28:41.978Z,57.85
2022-11-24T11:34:16.661Z,57.92
2022-11-24T11:39:23.631Z,57.42
2022-11-24T11:44:36.343Z,57.93
2022-11-24T11:49:41.331Z,57.69
2022-11-24T11:55:05.956Z,57.90
2022-11-24T12:00:14.836Z,57.69
2022-11-24T12:05:25.972Z,57.81
2022-11-24T12:10:35.314Z,57.72
2022-11-24T12:15:42.270Z,57.47
2022-11-24T12:20:56.308Z,57.77
2022-11-24T12:26:06.290Z,57.98
2022-11-24T12:31:15.594Z,57.85
2022-11-24T12:36:27.351Z,57.70
2022-11-24T12:41:42.831Z,57.61
2022-11-24T12:46:52.068Z,57.82
2022-11-24T12:51:59.160Z,57.83
2022-11-24T12:57:07.987Z,57.95
2022-11-24T13:02:19.415Z,57.77
2022-11-24T13:07:28.062Z,57.76
2022-11-24T13:12:32.698Z,57.95
2022-11-24T13:17:52.442Z,57.92
2022-11-24T13:23:03.079Z,57.82
2022-11-24T13:28:07.418Z,57.98
2022-11-24T13:33:27.702Z,58.05
2022-11-24T13:38:42.275Z,57.69
2022-11-24T13:44:00.410Z,57.82
2022-11-24T13:49:14.470Z,57.97
2022-11-24T13:54:19.159Z,58.02
2022-11-24T13:59:27.996Z,57.84
2022-11-24T14:04:33.291Z,57.85
2022-11-24T14:09:41.394Z,58.12
2022-11-24T14:14:46.105Z,58.15
2022-11-24T14:19:51.266Z,57.54
2022-11-24T14:24:56.570Z,57.82
2022-11-24T14:30:01.500Z,58.02
2022-11-24T14:35:16.817Z,58.22
2022-11-24T14:40:41.001Z,58.20
2022-11-24T14:45:50.347Z,57.99
2022-11-24T14:50:55.457Z,57.99
2022-11-24T14:56:10.060Z,57.86
2022-11-24T15:01:21.020Z,57.99
2022-11-24T15:06:25.541Z,57.90
2022-11-24T15:11:31.085Z,58.09
2022-11-24T15:16:35.283Z,58.02
2022-11-24T15:21:40.472Z,57.97
2022-11-24T15:26:45.307Z,57.86
2022-11-24T15:31:52.878Z,57.85
2022-11-24T15:36:57.871Z,57.98
2022-11-24T15:42:02.251Z,58.03
2022-11-24T15:47:06.906Z,57.73
2022-11-24T15:52:14.968Z,57.89
2022-11-24T15:57:19.611Z,57.82
2022-11-24T16:02:23.968Z,58.25
2022-11-24T16:07:28.484Z,58.22
2022-11-24T16:12:32.988Z,58.20
2022-11-24T16:17:37.519Z,58.04
2022-11-24T16:22:42.089Z,58.08
2022-11-24T16:27:46.728Z,58.01
2022-11-24T16:32:51.090Z,58.01
2022-11-24T16:37:55.728Z,57.92
2022-11-24T16:43:00.248Z,58.32
2022-11-24T16:48:04.970Z,58.14
2022-11-24T16:53:09.408Z,58.20
2022-11-24T16:58:14.173Z,58.03
2022-11-24T17:03:18.912Z,58.33
2022-11-24T17:08:23.149Z,58.54
2022-11-24T17:13:27.439Z,58.49
2022-11-24T17:18:31.941Z,58.58
2022-11-24T17:23:36.702Z,58.50
2022-11-24T17:28:41.159Z,58.54
2022-11-24T17:33:45.528Z,58.46
2022-11-24T17:38:49.988Z,58.56
2022-11-24T17:43:55.583Z,58.34
2022-11-24T17:49:00.081Z,58.28
2022-11-24T17:54:31.188Z,58.74
2022-11-24T17:59:29.636Z,58.88
2022-11-24T18:04:34.870Z,58.85
2022-11-24T18:09:39.047Z,58.88
2022-11-24T18:14:43.471Z,58.93
2022-11-24T18:19:47.953Z,58.97
2022-11-24T18:24:52.698Z,58.87
2022-11-24T18:29:57.088Z,58.95
2022-11-24T18:35:01.579Z,59.15
2022-11-24T18:40:07.195Z,58.65
2022-11-24T18:45:12.199Z,58.70
2022-11-24T18:50:17.037Z,58.95
2022-11-24T18:55:21.340Z,58.87
2022-11-24T19:00:26.238Z,58.88
2022-11-24T19:05:30.618Z,59.20
2022-11-24T19:10:37.466Z,59.08
2022-11-24T19:15:41.898Z,58.63
2022-11-24T19:20:46.282Z,58.92
2022-11-24T19:25:50.619Z,59.14
2022-11-24T19:31:00.208Z,59.07
2022-11-24T19:36:05.770Z,59.01
2022-11-24T19:41:11.038Z,58.93
2022-11-24T19:46:16.186Z,58.82
2022-11-24T19:51:22.167Z,58.82
2022-11-24T19:56:27.442Z,59.13
2022-11-24T20:01:32.763Z,58.60
2022-11-24T20:06:38.099Z,58.66
2022-11-24T20:11:42.482Z,59.17
2022-11-24T20:16:47.444Z,58.74
2022-11-24T20:21:53.426Z,58.91
2022-11-24T20:26:58.675Z,58.90
2022-11-24T20:32:03.344Z,58.69
2022-11-24T20:37:13.178Z,59.03
2022-11-24T20:42:18.199Z,58.67
2022-11-24T20:47:22.799Z,58.86
2022-11-24T20:52:27.424Z,59.13
2022-11-24T20:57:31.798Z,59.05
2022-11-24T21:02:36.155Z,58.94
2022-11-24T21:07:40.596Z,58.77
2022-11-24T21:12:45.028Z,59.07
2022-11-24T21:17:49.168Z,59.03
2022-11-24T21:22:53.728Z,58.60
2022-11-24T21:27:58.189Z,59.12
2022-11-24T21:33:03.865Z,58.86
2022-11-24T21:38:08.450Z,58.76
2022-11-24T21:43:13.016Z,58.60
2022-11-24T21:48:17.738Z,58.77
2022-11-24T21:53:22.258Z,58.73
2022-11-24T21:58:27.362Z,58.87
2022-11-24T22:03:31.864Z,58.64
2022-11-24T22:08:36.512Z,58.77
2022-11-24T22:13:41.278Z,58.78
2022-11-24T22:18:46.242Z,58.98
2022-11-24T22:23:52.502Z,58.80
2022-11-24T22:28:57.408Z,59.01
2022-11-24T22:34:01.947Z,58.85
2022-11-24T22:39:06.911Z,58.80
2022-11-24T22:44:11.437Z,58.86
2022-11-24T22:49:15.848Z,58.95
2022-11-24T22:54:20.756Z,58.78
2022-11-24T22:59:25.538Z,58.85
2022-11-24T23:04:29.975Z,58.85
2022-11-24T23:09:34.549Z,58.74
2022-11-24T23:14:38.996Z,58.81
2022-11-24T23:19:43.487Z,58.73
2022-11-24T23:24:47.996Z,58.94
2022-11-24T23:29:52.507Z,58.98
2022-11-24T23:34:57.152Z,58.90
2022-11-24T23:40:01.699Z,58.89
2022-11-24T23:45:08.578Z,59.02
2022-11-24T23:50:13.799Z,58.72
2022-11-24T23:55:18.857Z,58.96
